Pomona, MO

5:25 PM CDT on August 27, 2016 (GMT -0500)
West Plains Municipal | | Change Station

Elev 1227 ft 36.88 °N, 91.91 °W | Updated 32 minutes ago

Clear
Clear
85 °F
Feels Like 88 °F
N
4
Wind Variable Wind from South

Today
High -- | Low -- °F
--% Chance of Precip.
Yesterday
High -- | Low -- °F
Precip. -- in
Pressure 30.01 in
Visibility 10.0 miles
Clouds Clear
Heat Index 88 °F
Dew Point 68 °F
Humidity 57%
Rainfall 0.00 in
Snow Depth Not available.
6:34 AM 7:42 PM
Waning Crescent, 21% visible
METAR KUNO 272153Z AUTO 19003KT 10SM CLR 29/20 A3005 RMK AO2 SLP162 T02940200
Pressure 30.01 in
Visibility 10.0 miles
Clouds Clear
Heat Index 88 °F
Dew Point 68 °F
Humidity 57%
Rainfall 0.00 in
Snow Depth Not available.
6:34 AM 7:42 PM
Waning Crescent, 21% visible
METAR KUNO 272153Z AUTO 19003KT 10SM CLR 29/20 A3005 RMK AO2 SLP162 T02940200

10-Day Weather Forecast

Almanac

Astronomy

Aug. 27, 2016 Rise Set
Actual Time
Civil Twilight
Nautical Twilight
Astronomical Twilight
Moon
Length of Visible Light
Length of Day
Tomorrow will be .
, % of the Moon is Illuminated

Today's Extremes

State Highs State Lows

Community

WunderPhotos

Upload Photos

1,935,455 photos uploaded!

WunderBlog® & News

Nearby

Air Quality

  Air Quality AQ Index Pollutant
Not available.

Snow Depth

Station Depth Elevation

Earthquake Activity

City Distance Mag. Time & Date
Minimum magnitude displayed is 2.5.

Coastal Water Temperatures

Place Temperature

Stations

Nearby Weather Stations

Station Location Temp. Windchill Dew Point Humidity Wind Precip. Elev Updated Type
                   

Watches & Warnings

There are currently no watches in effect.